sensor_id;sensor_type;location;lat;lon;timestamp;pressure;altitude;pressure_sealevel;temperature
25514;BMP180;48128;54.242;10.280;2023-09-08T00:02:30;101820.00;;;15.80
25514;BMP180;48128;54.242;10.280;2023-09-08T00:12:53;101809.00;;;15.70
25514;BMP180;48128;54.242;10.280;2023-09-08T00:22:38;101802.00;;;15.60
25514;BMP180;48128;54.242;10.280;2023-09-08T00:25:14;101797.00;;;15.60
25514;BMP180;48128;54.242;10.280;2023-09-08T00:28:00;101809.00;;;15.50
25514;BMP180;48128;54.242;10.280;2023-09-08T00:41:39;101799.00;;;15.40
25514;BMP180;48128;54.242;10.280;2023-09-08T00:44:12;101786.00;;;15.30
25514;BMP180;48128;54.242;10.280;2023-09-08T00:46:45;101788.00;;;15.30
25514;BMP180;48128;54.242;10.280;2023-09-08T00:53:30;101794.00;;;15.20
25514;BMP180;48128;54.242;10.280;2023-09-08T01:00:14;101788.00;;;15.10
25514;BMP180;48128;54.242;10.280;2023-09-08T01:02:45;101803.00;;;15.10
25514;BMP180;48128;54.242;10.280;2023-09-08T01:08:47;101787.00;;;15.00
25514;BMP180;48128;54.242;10.280;2023-09-08T01:11:14;101788.00;;;14.90
25514;BMP180;48128;54.242;10.280;2023-09-08T01:13:43;101787.00;;;14.90
25514;BMP180;48128;54.242;10.280;2023-09-08T01:16:10;101790.00;;;14.80
25514;BMP180;48128;54.242;10.280;2023-09-08T01:18:37;101783.00;;;14.80
25514;BMP180;48128;54.242;10.280;2023-09-08T01:26:28;101771.00;;;14.80
25514;BMP180;48128;54.242;10.280;2023-09-08T01:28:57;101774.00;;;14.80
25514;BMP180;48128;54.242;10.280;2023-09-08T01:32:17;101770.00;;;14.70
25514;BMP180;48128;54.242;10.280;2023-09-08T01:35:09;101772.00;;;14.70
25514;BMP180;48128;54.242;10.280;2023-09-08T01:37:47;101768.00;;;14.70
25514;BMP180;48128;54.242;10.280;2023-09-08T01:43:17;101757.00;;;14.70
25514;BMP180;48128;54.242;10.280;2023-09-08T01:45:45;101771.00;;;14.70
25514;BMP180;48128;54.242;10.280;2023-09-08T01:48:12;101758.00;;;14.70
25514;BMP180;48128;54.242;10.280;2023-09-08T01:50:39;101765.00;;;14.70
25514;BMP180;48128;54.242;10.280;2023-09-08T01:53:06;101765.00;;;14.60
25514;BMP180;48128;54.242;10.280;2023-09-08T01:55:34;101761.00;;;14.60
25514;BMP180;48128;54.242;10.280;2023-09-08T01:58:01;101743.00;;;14.60
25514;BMP180;48128;54.242;10.280;2023-09-08T02:00:28;101753.00;;;14.60
25514;BMP180;48128;54.242;10.280;2023-09-08T02:02:56;101753.00;;;14.60
25514;BMP180;48128;54.242;10.280;2023-09-08T02:05:23;101745.00;;;14.60
25514;BMP180;48128;54.242;10.280;2023-09-08T02:07:52;101739.00;;;14.50
25514;BMP180;48128;54.242;10.280;2023-09-08T02:10:19;101737.00;;;14.50
25514;BMP180;48128;54.242;10.280;2023-09-08T02:12:47;101732.00;;;14.50
25514;BMP180;48128;54.242;10.280;2023-09-08T02:15:14;101739.00;;;14.50
25514;BMP180;48128;54.242;10.280;2023-09-08T02:17:42;101733.00;;;14.40
25514;BMP180;48128;54.242;10.280;2023-09-08T02:20:10;101729.00;;;14.40
25514;BMP180;48128;54.242;10.280;2023-09-08T02:22:37;101728.00;;;14.40
25514;BMP180;48128;54.242;10.280;2023-09-08T02:25:04;101726.00;;;14.40
25514;BMP180;48128;54.242;10.280;2023-09-08T02:27:31;101734.00;;;14.30
25514;BMP180;48128;54.242;10.280;2023-09-08T02:30:11;101740.00;;;14.30
25514;BMP180;48128;54.242;10.280;2023-09-08T02:36:33;101739.00;;;14.30
25514;BMP180;48128;54.242;10.280;2023-09-08T02:39:10;101724.00;;;14.20
25514;BMP180;48128;54.242;10.280;2023-09-08T02:41:40;101735.00;;;14.20
25514;BMP180;48128;54.242;10.280;2023-09-08T02:44:07;101727.00;;;14.20
25514;BMP180;48128;54.242;10.280;2023-09-08T02:46:41;101706.00;;;14.20
25514;BMP180;48128;54.242;10.280;2023-09-08T02:49:08;101711.00;;;14.20
25514;BMP180;48128;54.242;10.280;2023-09-08T02:51:35;101713.00;;;14.20
25514;BMP180;48128;54.242;10.280;2023-09-08T02:54:17;101709.00;;;14.10
25514;BMP180;48128;54.242;10.280;2023-09-08T02:56:50;101713.00;;;14.10
25514;BMP180;48128;54.242;10.280;2023-09-08T02:59:17;101710.00;;;14.10
25514;BMP180;48128;54.242;10.280;2023-09-08T03:01:44;101709.00;;;14.10
25514;BMP180;48128;54.242;10.280;2023-09-08T03:04:11;101696.00;;;14.00
25514;BMP180;48128;54.242;10.280;2023-09-08T03:06:39;101704.00;;;14.00
25514;BMP180;48128;54.242;10.280;2023-09-08T03:20:17;101704.00;;;13.90
25514;BMP180;48128;54.242;10.280;2023-09-08T03:22:47;101702.00;;;13.90
25514;BMP180;48128;54.242;10.280;2023-09-08T03:25:17;101700.00;;;13.90
25514;BMP180;48128;54.242;10.280;2023-09-08T03:27:44;101692.00;;;13.90
25514;BMP180;48128;54.242;10.280;2023-09-08T03:30:11;101695.00;;;13.90
25514;BMP180;48128;54.242;10.280;2023-09-08T03:32:38;101694.00;;;13.90
25514;BMP180;48128;54.242;10.280;2023-09-08T03:35:05;101693.00;;;13.90
25514;BMP180;48128;54.242;10.280;2023-09-08T03:37:35;101685.00;;;13.80
25514;BMP180;48128;54.242;10.280;2023-09-08T03:40:20;101694.00;;;13.80
25514;BMP180;48128;54.242;10.280;2023-09-08T03:46:50;101684.00;;;13.80
25514;BMP180;48128;54.242;10.280;2023-09-08T03:49:17;101690.00;;;13.80
25514;BMP180;48128;54.242;10.280;2023-09-08T04:02:09;101666.00;;;13.60
25514;BMP180;48128;54.242;10.280;2023-09-08T04:07:50;101661.00;;;13.50
25514;BMP180;48128;54.242;10.280;2023-09-08T04:10:17;101664.00;;;13.50
25514;BMP180;48128;54.242;10.280;2023-09-08T04:12:44;101670.00;;;13.50
25514;BMP180;48128;54.242;10.280;2023-09-08T04:15:11;101655.00;;;13.50
25514;BMP180;48128;54.242;10.280;2023-09-08T04:17:38;101664.00;;;13.50
25514;BMP180;48128;54.242;10.280;2023-09-08T04:20:06;101667.00;;;13.50
25514;BMP180;48128;54.242;10.280;2023-09-08T04:22:33;101660.00;;;13.40
25514;BMP180;48128;54.242;10.280;2023-09-08T04:25:01;101661.00;;;13.40
25514;BMP180;48128;54.242;10.280;2023-09-08T04:27:28;101658.00;;;13.40
25514;BMP180;48128;54.242;10.280;2023-09-08T04:29:55;101663.00;;;13.40
25514;BMP180;48128;54.242;10.280;2023-09-08T04:32:22;101665.00;;;13.40
25514;BMP180;48128;54.242;10.280;2023-09-08T04:34:49;101661.00;;;13.40
25514;BMP180;48128;54.242;10.280;2023-09-08T04:37:16;101650.00;;;13.30
25514;BMP180;48128;54.242;10.280;2023-09-08T04:39:43;101655.00;;;13.30
25514;BMP180;48128;54.242;10.280;2023-09-08T04:42:10;101660.00;;;13.30
25514;BMP180;48128;54.242;10.280;2023-09-08T04:44:38;101647.00;;;13.30
25514;BMP180;48128;54.242;10.280;2023-09-08T04:47:05;101659.00;;;13.30
25514;BMP180;48128;54.242;10.280;2023-09-08T04:49:32;101663.00;;;13.30
25514;BMP180;48128;54.242;10.280;2023-09-08T04:51:59;101660.00;;;13.30
25514;BMP180;48128;54.242;10.280;2023-09-08T04:54:26;101648.00;;;13.30
25514;BMP180;48128;54.242;10.280;2023-09-08T04:56:54;101655.00;;;13.20
25514;BMP180;48128;54.242;10.280;2023-09-08T04:59:33;101651.00;;;13.20
25514;BMP180;48128;54.242;10.280;2023-09-08T05:02:00;101653.00;;;13.20
25514;BMP180;48128;54.242;10.280;2023-09-08T05:04:27;101659.00;;;13.20
25514;BMP180;48128;54.242;10.280;2023-09-08T05:06:56;101649.00;;;13.20
25514;BMP180;48128;54.242;10.280;2023-09-08T05:09:23;101659.00;;;13.20
25514;BMP180;48128;54.242;10.280;2023-09-08T05:11:50;101660.00;;;13.20
25514;BMP180;48128;54.242;10.280;2023-09-08T05:14:20;101651.00;;;13.20
25514;BMP180;48128;54.242;10.280;2023-09-08T05:16:47;101646.00;;;13.20
25514;BMP180;48128;54.242;10.280;2023-09-08T05:19:22;101657.00;;;13.20
25514;BMP180;48128;54.242;10.280;2023-09-08T05:21:51;101652.00;;;13.20
25514;BMP180;48128;54.242;10.280;2023-09-08T05:24:19;101660.00;;;13.20
25514;BMP180;48128;54.242;10.280;2023-09-08T05:26:48;101663.00;;;13.20
25514;BMP180;48128;54.242;10.280;2023-09-08T05:29:21;101647.00;;;13.20
25514;BMP180;48128;54.242;10.280;2023-09-08T05:31:49;101660.00;;;13.30
25514;BMP180;48128;54.242;10.280;2023-09-08T05:34:16;101659.00;;;13.30
25514;BMP180;48128;54.242;10.280;2023-09-08T05:36:43;101651.00;;;13.30
25514;BMP180;48128;54.242;10.280;2023-09-08T05:39:10;101658.00;;;13.30
25514;BMP180;48128;54.242;10.280;2023-09-08T05:41:37;101650.00;;;13.30
25514;BMP180;48128;54.242;10.280;2023-09-08T05:44:04;101651.00;;;13.30
25514;BMP180;48128;54.242;10.280;2023-09-08T05:46:34;101653.00;;;13.40
25514;BMP180;48128;54.242;10.280;2023-09-08T05:49:01;101652.00;;;13.40
25514;BMP180;48128;54.242;10.280;2023-09-08T05:51:28;101647.00;;;13.50
25514;BMP180;48128;54.242;10.280;2023-09-08T05:53:55;101645.00;;;13.50
25514;BMP180;48128;54.242;10.280;2023-09-08T05:56:24;101639.00;;;13.50
25514;BMP180;48128;54.242;10.280;2023-09-08T05:58:53;101647.00;;;13.60
25514;BMP180;48128;54.242;10.280;2023-09-08T06:01:19;101644.00;;;13.60
25514;BMP180;48128;54.242;10.280;2023-09-08T06:03:48;101649.00;;;13.70
25514;BMP180;48128;54.242;10.280;2023-09-08T06:06:15;101642.00;;;13.70
25514;BMP180;48128;54.242;10.280;2023-09-08T06:08:42;101654.00;;;13.80
25514;BMP180;48128;54.242;10.280;2023-09-08T06:11:09;101653.00;;;13.80
25514;BMP180;48128;54.242;10.280;2023-09-08T06:13:36;101644.00;;;13.90
25514;BMP180;48128;54.242;10.280;2023-09-08T06:16:02;101653.00;;;14.00
25514;BMP180;48128;54.242;10.280;2023-09-08T06:18:29;101647.00;;;14.10
25514;BMP180;48128;54.242;10.280;2023-09-08T06:21:06;101647.00;;;14.10
25514;BMP180;48128;54.242;10.280;2023-09-08T06:23:34;101649.00;;;14.20
25514;BMP180;48128;54.242;10.280;2023-09-08T06:26:03;101642.00;;;14.30
25514;BMP180;48128;54.242;10.280;2023-09-08T06:28:30;101644.00;;;14.40
25514;BMP180;48128;54.242;10.280;2023-09-08T06:30:57;101648.00;;;14.50
25514;BMP180;48128;54.242;10.280;2023-09-08T06:33:24;101649.00;;;14.60
25514;BMP180;48128;54.242;10.280;2023-09-08T06:35:51;101646.00;;;14.70
25514;BMP180;48128;54.242;10.280;2023-09-08T06:38:20;101658.00;;;14.90
25514;BMP180;48128;54.242;10.280;2023-09-08T06:40:47;101649.00;;;15.00
25514;BMP180;48128;54.242;10.280;2023-09-08T06:43:14;101647.00;;;15.10
25514;BMP180;48128;54.242;10.280;2023-09-08T06:45:41;101649.00;;;15.20
25514;BMP180;48128;54.242;10.280;2023-09-08T06:48:08;101659.00;;;15.30
25514;BMP180;48128;54.242;10.280;2023-09-08T06:50:35;101652.00;;;15.40
25514;BMP180;48128;54.242;10.280;2023-09-08T06:53:02;101647.00;;;15.60
25514;BMP180;48128;54.242;10.280;2023-09-08T06:55:29;101652.00;;;15.80
25514;BMP180;48128;54.242;10.280;2023-09-08T06:57:56;101641.00;;;15.80
25514;BMP180;48128;54.242;10.280;2023-09-08T07:00:23;101639.00;;;15.90
25514;BMP180;48128;54.242;10.280;2023-09-08T07:02:51;101630.00;;;16.10
25514;BMP180;48128;54.242;10.280;2023-09-08T07:05:18;101639.00;;;16.20
25514;BMP180;48128;54.242;10.280;2023-09-08T07:07:45;101631.00;;;16.30
25514;BMP180;48128;54.242;10.280;2023-09-08T07:10:13;101623.00;;;16.40
25514;BMP180;48128;54.242;10.280;2023-09-08T07:12:39;101618.00;;;16.50
25514;BMP180;48128;54.242;10.280;2023-09-08T07:15:07;101626.00;;;16.60
25514;BMP180;48128;54.242;10.280;2023-09-08T07:17:35;101635.00;;;16.60
25514;BMP180;48128;54.242;10.280;2023-09-08T07:20:02;101630.00;;;16.70
25514;BMP180;48128;54.242;10.280;2023-09-08T07:22:30;101631.00;;;16.80
25514;BMP180;48128;54.242;10.280;2023-09-08T07:24:57;101631.00;;;16.80
25514;BMP180;48128;54.242;10.280;2023-09-08T07:27:23;101644.00;;;16.90
25514;BMP180;48128;54.242;10.280;2023-09-08T07:29:50;101643.00;;;17.10
25514;BMP180;48128;54.242;10.280;2023-09-08T07:32:17;101647.00;;;17.20
25514;BMP180;48128;54.242;10.280;2023-09-08T07:34:44;101640.00;;;17.30
25514;BMP180;48128;54.242;10.280;2023-09-08T07:37:11;101643.00;;;17.50
25514;BMP180;48128;54.242;10.280;2023-09-08T07:39:38;101640.00;;;17.60
25514;BMP180;48128;54.242;10.280;2023-09-08T07:42:05;101653.00;;;17.70
25514;BMP180;48128;54.242;10.280;2023-09-08T07:44:32;101646.00;;;17.80
25514;BMP180;48128;54.242;10.280;2023-09-08T07:46:59;101656.00;;;17.90
25514;BMP180;48128;54.242;10.280;2023-09-08T07:49:26;101653.00;;;18.00
25514;BMP180;48128;54.242;10.280;2023-09-08T07:51:53;101629.00;;;18.10
25514;BMP180;48128;54.242;10.280;2023-09-08T07:54:20;101618.00;;;18.20
25514;BMP180;48128;54.242;10.280;2023-09-08T07:56:47;101612.00;;;18.30
25514;BMP180;48128;54.242;10.280;2023-09-08T07:59:14;101619.00;;;18.30
25514;BMP180;48128;54.242;10.280;2023-09-08T08:01:41;101620.00;;;18.40
25514;BMP180;48128;54.242;10.280;2023-09-08T08:04:08;101625.00;;;18.60
25514;BMP180;48128;54.242;10.280;2023-09-08T08:06:35;101620.00;;;18.80
25514;BMP180;48128;54.242;10.280;2023-09-08T08:09:02;101621.00;;;18.90
25514;BMP180;48128;54.242;10.280;2023-09-08T08:11:29;101612.00;;;19.00
25514;BMP180;48128;54.242;10.280;2023-09-08T08:13:56;101605.00;;;19.10
25514;BMP180;48128;54.242;10.280;2023-09-08T08:16:23;101594.00;;;19.20
25514;BMP180;48128;54.242;10.280;2023-09-08T08:18:51;101599.00;;;19.40
25514;BMP180;48128;54.242;10.280;2023-09-08T08:21:18;101592.00;;;19.50
25514;BMP180;48128;54.242;10.280;2023-09-08T08:23:45;101607.00;;;19.60
25514;BMP180;48128;54.242;10.280;2023-09-08T08:26:12;101602.00;;;19.70
25514;BMP180;48128;54.242;10.280;2023-09-08T08:28:39;101593.00;;;19.80
25514;BMP180;48128;54.242;10.280;2023-09-08T08:31:06;101589.00;;;19.90
25514;BMP180;48128;54.242;10.280;2023-09-08T08:33:33;101578.00;;;20.00
25514;BMP180;48128;54.242;10.280;2023-09-08T08:36:00;101583.00;;;20.10
25514;BMP180;48128;54.242;10.280;2023-09-08T08:38:27;101600.00;;;20.20
25514;BMP180;48128;54.242;10.280;2023-09-08T08:40:54;101603.00;;;20.40
25514;BMP180;48128;54.242;10.280;2023-09-08T08:43:21;101622.00;;;20.50
25514;BMP180;48128;54.242;10.280;2023-09-08T08:45:49;101595.00;;;20.70
25514;BMP180;48128;54.242;10.280;2023-09-08T08:48:17;101593.00;;;20.80
25514;BMP180;48128;54.242;10.280;2023-09-08T08:50:45;101620.00;;;20.90
25514;BMP180;48128;54.242;10.280;2023-09-08T08:53:12;101609.00;;;21.00
25514;BMP180;48128;54.242;10.280;2023-09-08T08:55:39;101588.00;;;21.10
25514;BMP180;48128;54.242;10.280;2023-09-08T08:58:07;101588.00;;;21.30
25514;BMP180;48128;54.242;10.280;2023-09-08T09:00:35;101577.00;;;21.40
25514;BMP180;48128;54.242;10.280;2023-09-08T09:03:05;101586.00;;;21.40
25514;BMP180;48128;54.242;10.280;2023-09-08T09:05:41;101599.00;;;21.60
25514;BMP180;48128;54.242;10.280;2023-09-08T09:08:13;101586.00;;;21.80
25514;BMP180;48128;54.242;10.280;2023-09-08T09:10:41;101590.00;;;22.00
25514;BMP180;48128;54.242;10.280;2023-09-08T09:13:08;101584.00;;;22.10
25514;BMP180;48128;54.242;10.280;2023-09-08T09:15:35;101589.00;;;22.30
25514;BMP180;48128;54.242;10.280;2023-09-08T09:18:06;101574.00;;;22.30
25514;BMP180;48128;54.242;10.280;2023-09-08T09:20:33;101596.00;;;22.50
25514;BMP180;48128;54.242;10.280;2023-09-08T09:23:00;101589.00;;;22.70
25514;BMP180;48128;54.242;10.280;2023-09-08T09:25:29;101607.00;;;22.90
25514;BMP180;48128;54.242;10.280;2023-09-08T09:28:01;101613.00;;;23.20
25514;BMP180;48128;54.242;10.280;2023-09-08T09:30:49;101598.00;;;23.30
25514;BMP180;48128;54.242;10.280;2023-09-08T09:33:16;101605.00;;;23.60
25514;BMP180;48128;54.242;10.280;2023-09-08T09:35:48;101614.00;;;23.60
25514;BMP180;48128;54.242;10.280;2023-09-08T09:38:20;101612.00;;;23.70
25514;BMP180;48128;54.242;10.280;2023-09-08T09:40:47;101585.00;;;23.90
25514;BMP180;48128;54.242;10.280;2023-09-08T09:43:16;101595.00;;;24.00
25514;BMP180;48128;54.242;10.280;2023-09-08T09:45:43;101582.00;;;24.10
25514;BMP180;48128;54.242;10.280;2023-09-08T09:48:11;101577.00;;;24.10
25514;BMP180;48128;54.242;10.280;2023-09-08T09:50:40;101582.00;;;24.30
25514;BMP180;48128;54.242;10.280;2023-09-08T09:53:15;101580.00;;;24.20
25514;BMP180;48128;54.242;10.280;2023-09-08T09:55:43;101598.00;;;24.40
25514;BMP180;48128;54.242;10.280;2023-09-08T09:58:11;101601.00;;;24.60
25514;BMP180;48128;54.242;10.280;2023-09-08T10:00:38;101587.00;;;24.70
25514;BMP180;48128;54.242;10.280;2023-09-08T10:03:08;101570.00;;;24.70
25514;BMP180;48128;54.242;10.280;2023-09-08T10:05:36;101567.00;;;24.90
25514;BMP180;48128;54.242;10.280;2023-09-08T10:08:04;101593.00;;;25.10
25514;BMP180;48128;54.242;10.280;2023-09-08T10:10:32;101590.00;;;25.30
25514;BMP180;48128;54.242;10.280;2023-09-08T10:13:02;101577.00;;;25.40
25514;BMP180;48128;54.242;10.280;2023-09-08T10:15:30;101573.00;;;25.50
25514;BMP180;48128;54.242;10.280;2023-09-08T10:17:58;101562.00;;;25.70
25514;BMP180;48128;54.242;10.280;2023-09-08T10:20:27;101596.00;;;26.00
25514;BMP180;48128;54.242;10.280;2023-09-08T10:23:12;101599.00;;;25.90
25514;BMP180;48128;54.242;10.280;2023-09-08T10:25:43;101604.00;;;26.10
25514;BMP180;48128;54.242;10.280;2023-09-08T10:28:12;101596.00;;;26.20
25514;BMP180;48128;54.242;10.280;2023-09-08T10:30:40;101594.00;;;26.20
25514;BMP180;48128;54.242;10.280;2023-09-08T10:33:07;101590.00;;;26.20
25514;BMP180;48128;54.242;10.280;2023-09-08T10:35:35;101587.00;;;26.40
25514;BMP180;48128;54.242;10.280;2023-09-08T10:38:28;101586.00;;;26.60
25514;BMP180;48128;54.242;10.280;2023-09-08T10:43:45;101593.00;;;26.80
25514;BMP180;48128;54.242;10.280;2023-09-08T10:46:22;101598.00;;;26.80
25514;BMP180;48128;54.242;10.280;2023-09-08T10:48:49;101579.00;;;27.00
25514;BMP180;48128;54.242;10.280;2023-09-08T10:51:17;101605.00;;;27.00
25514;BMP180;48128;54.242;10.280;2023-09-08T10:53:46;101591.00;;;27.10
25514;BMP180;48128;54.242;10.280;2023-09-08T10:56:13;101591.00;;;27.00
25514;BMP180;48128;54.242;10.280;2023-09-08T10:58:48;101590.00;;;27.00
25514;BMP180;48128;54.242;10.280;2023-09-08T11:01:17;101579.00;;;27.20
25514;BMP180;48128;54.242;10.280;2023-09-08T11:03:46;101573.00;;;27.20
25514;BMP180;48128;54.242;10.280;2023-09-08T11:06:19;101565.00;;;27.40
25514;BMP180;48128;54.242;10.280;2023-09-08T11:08:46;101558.00;;;27.50
25514;BMP180;48128;54.242;10.280;2023-09-08T11:11:15;101600.00;;;27.70
25514;BMP180;48128;54.242;10.280;2023-09-08T11:13:42;101585.00;;;27.60
25514;BMP180;48128;54.242;10.280;2023-09-08T11:16:16;101583.00;;;27.70
25514;BMP180;48128;54.242;10.280;2023-09-08T11:18:44;101572.00;;;27.80
25514;BMP180;48128;54.242;10.280;2023-09-08T11:21:11;101594.00;;;27.70
25514;BMP180;48128;54.242;10.280;2023-09-08T11:23:38;101589.00;;;27.80
25514;BMP180;48128;54.242;10.280;2023-09-08T11:26:06;101590.00;;;27.70
25514;BMP180;48128;54.242;10.280;2023-09-08T11:28:33;101577.00;;;27.70
25514;BMP180;48128;54.242;10.280;2023-09-08T11:31:01;101579.00;;;27.60
25514;BMP180;48128;54.242;10.280;2023-09-08T11:33:32;101574.00;;;27.80
25514;BMP180;48128;54.242;10.280;2023-09-08T11:35:59;101572.00;;;27.90
25514;BMP180;48128;54.242;10.280;2023-09-08T11:38:27;101574.00;;;28.20
25514;BMP180;48128;54.242;10.280;2023-09-08T11:40:55;101580.00;;;28.30
25514;BMP180;48128;54.242;10.280;2023-09-08T11:43:24;101573.00;;;28.40
25514;BMP180;48128;54.242;10.280;2023-09-08T11:45:52;101571.00;;;28.20
25514;BMP180;48128;54.242;10.280;2023-09-08T11:48:19;101584.00;;;28.30
25514;BMP180;48128;54.242;10.280;2023-09-08T11:50:46;101567.00;;;27.90
25514;BMP180;48128;54.242;10.280;2023-09-08T11:53:13;101536.00;;;28.00
25514;BMP180;48128;54.242;10.280;2023-09-08T11:55:45;101576.00;;;28.20
25514;BMP180;48128;54.242;10.280;2023-09-08T11:58:12;101565.00;;;28.30
25514;BMP180;48128;54.242;10.280;2023-09-08T12:00:51;101568.00;;;28.30
25514;BMP180;48128;54.242;10.280;2023-09-08T12:03:21;101553.00;;;28.30
25514;BMP180;48128;54.242;10.280;2023-09-08T12:05:51;101557.00;;;28.20
25514;BMP180;48128;54.242;10.280;2023-09-08T12:08:19;101542.00;;;28.30
25514;BMP180;48128;54.242;10.280;2023-09-08T12:10:46;101554.00;;;28.50
25514;BMP180;48128;54.242;10.280;2023-09-08T12:13:13;101524.00;;;28.50
25514;BMP180;48128;54.242;10.280;2023-09-08T12:15:46;101544.00;;;28.60
25514;BMP180;48128;54.242;10.280;2023-09-08T12:18:14;101558.00;;;28.60
25514;BMP180;48128;54.242;10.280;2023-09-08T12:20:44;101542.00;;;28.80
25514;BMP180;48128;54.242;10.280;2023-09-08T12:23:19;101556.00;;;28.70
25514;BMP180;48128;54.242;10.280;2023-09-08T12:25:48;101540.00;;;28.80
25514;BMP180;48128;54.242;10.280;2023-09-08T12:28:18;101539.00;;;29.00
25514;BMP180;48128;54.242;10.280;2023-09-08T12:30:45;101550.00;;;29.10
25514;BMP180;48128;54.242;10.280;2023-09-08T12:33:13;101538.00;;;29.00
25514;BMP180;48128;54.242;10.280;2023-09-08T12:35:44;101539.00;;;28.90
25514;BMP180;48128;54.242;10.280;2023-09-08T12:38:15;101524.00;;;28.80
25514;BMP180;48128;54.242;10.280;2023-09-08T12:40:41;101531.00;;;28.80
25514;BMP180;48128;54.242;10.280;2023-09-08T12:43:08;101531.00;;;28.80
25514;BMP180;48128;54.242;10.280;2023-09-08T12:45:57;101520.00;;;28.80
25514;BMP180;48128;54.242;10.280;2023-09-08T12:48:24;101508.00;;;28.80
25514;BMP180;48128;54.242;10.280;2023-09-08T12:50:51;101521.00;;;28.80
25514;BMP180;48128;54.242;10.280;2023-09-08T12:53:18;101500.00;;;28.70
25514;BMP180;48128;54.242;10.280;2023-09-08T12:55:47;101528.00;;;28.80
25514;BMP180;48128;54.242;10.280;2023-09-08T12:58:14;101529.00;;;29.00
25514;BMP180;48128;54.242;10.280;2023-09-08T13:00:42;101524.00;;;29.10
25514;BMP180;48128;54.242;10.280;2023-09-08T13:03:09;101523.00;;;29.30
25514;BMP180;48128;54.242;10.280;2023-09-08T13:05:36;101513.00;;;29.30
25514;BMP180;48128;54.242;10.280;2023-09-08T13:08:06;101532.00;;;29.30
25514;BMP180;48128;54.242;10.280;2023-09-08T13:10:33;101542.00;;;29.40
25514;BMP180;48128;54.242;10.280;2023-09-08T13:13:00;101520.00;;;29.50
25514;BMP180;48128;54.242;10.280;2023-09-08T13:15:27;101538.00;;;29.50
25514;BMP180;48128;54.242;10.280;2023-09-08T13:17:55;101526.00;;;29.50
25514;BMP180;48128;54.242;10.280;2023-09-08T13:20:22;101511.00;;;29.50
25514;BMP180;48128;54.242;10.280;2023-09-08T13:22:49;101505.00;;;29.50
25514;BMP180;48128;54.242;10.280;2023-09-08T13:25:16;101509.00;;;29.50
25514;BMP180;48128;54.242;10.280;2023-09-08T13:27:42;101516.00;;;29.50
25514;BMP180;48128;54.242;10.280;2023-09-08T13:30:13;101490.00;;;29.50
25514;BMP180;48128;54.242;10.280;2023-09-08T13:32:41;101495.00;;;29.40
25514;BMP180;48128;54.242;10.280;2023-09-08T13:35:08;101483.00;;;29.30
25514;BMP180;48128;54.242;10.280;2023-09-08T13:37:35;101489.00;;;29.30
25514;BMP180;48128;54.242;10.280;2023-09-08T13:40:05;101497.00;;;29.40
25514;BMP180;48128;54.242;10.280;2023-09-08T13:42:32;101505.00;;;29.30
25514;BMP180;48128;54.242;10.280;2023-09-08T13:44:59;101478.00;;;29.20
25514;BMP180;48128;54.242;10.280;2023-09-08T13:47:27;101467.00;;;29.10
25514;BMP180;48128;54.242;10.280;2023-09-08T13:49:55;101480.00;;;29.10
25514;BMP180;48128;54.242;10.280;2023-09-08T13:52:24;101490.00;;;29.10
25514;BMP180;48128;54.242;10.280;2023-09-08T13:54:57;101478.00;;;29.20
25514;BMP180;48128;54.242;10.280;2023-09-08T13:57:26;101472.00;;;29.10
25514;BMP180;48128;54.242;10.280;2023-09-08T13:59:54;101473.00;;;29.00
25514;BMP180;48128;54.242;10.280;2023-09-08T14:02:23;101485.00;;;28.90
25514;BMP180;48128;54.242;10.280;2023-09-08T14:04:53;101455.00;;;29.00
25514;BMP180;48128;54.242;10.280;2023-09-08T14:07:26;101470.00;;;28.90
25514;BMP180;48128;54.242;10.280;2023-09-08T14:10:03;101468.00;;;29.00
25514;BMP180;48128;54.242;10.280;2023-09-08T14:12:37;101466.00;;;29.10
25514;BMP180;48128;54.242;10.280;2023-09-08T14:15:04;101443.00;;;29.10
25514;BMP180;48128;54.242;10.280;2023-09-08T14:17:33;101460.00;;;29.00
25514;BMP180;48128;54.242;10.280;2023-09-08T14:20:00;101476.00;;;29.10
25514;BMP180;48128;54.242;10.280;2023-09-08T14:22:27;101447.00;;;28.90
25514;BMP180;48128;54.242;10.280;2023-09-08T14:24:54;101454.00;;;28.60
25514;BMP180;48128;54.242;10.280;2023-09-08T14:27:21;101415.00;;;28.60
25514;BMP180;48128;54.242;10.280;2023-09-08T14:29:48;101424.00;;;28.50
25514;BMP180;48128;54.242;10.280;2023-09-08T14:32:14;101426.00;;;28.40
25514;BMP180;48128;54.242;10.280;2023-09-08T14:34:41;101436.00;;;28.30
25514;BMP180;48128;54.242;10.280;2023-09-08T14:37:08;101413.00;;;28.20
25514;BMP180;48128;54.242;10.280;2023-09-08T14:39:37;101405.00;;;28.10
25514;BMP180;48128;54.242;10.280;2023-09-08T14:42:04;101430.00;;;28.20
25514;BMP180;48128;54.242;10.280;2023-09-08T14:44:32;101437.00;;;28.20
25514;BMP180;48128;54.242;10.280;2023-09-08T14:46:59;101435.00;;;28.20
25514;BMP180;48128;54.242;10.280;2023-09-08T14:49:26;101431.00;;;28.20
25514;BMP180;48128;54.242;10.280;2023-09-08T14:51:53;101442.00;;;28.20
25514;BMP180;48128;54.242;10.280;2023-09-08T14:54:19;101424.00;;;28.00
25514;BMP180;48128;54.242;10.280;2023-09-08T14:56:46;101413.00;;;27.90
25514;BMP180;48128;54.242;10.280;2023-09-08T14:59:13;101418.00;;;27.80
25514;BMP180;48128;54.242;10.280;2023-09-08T15:01:40;101420.00;;;27.70
25514;BMP180;48128;54.242;10.280;2023-09-08T15:04:10;101410.00;;;27.70
25514;BMP180;48128;54.242;10.280;2023-09-08T15:06:37;101388.00;;;27.60
25514;BMP180;48128;54.242;10.280;2023-09-08T15:09:04;101406.00;;;27.50
25514;BMP180;48128;54.242;10.280;2023-09-08T15:11:31;101374.00;;;27.50
25514;BMP180;48128;54.242;10.280;2023-09-08T15:14:04;101391.00;;;27.30
25514;BMP180;48128;54.242;10.280;2023-09-08T15:16:33;101396.00;;;27.30